Accueil
METAR-TAF:

METAR-TAF

Aéroports :

Gloucester, Angleterre

Aéroport de Gloucestershire

latitude: 51-54N, longitude: 002-10W, altitude: 29 m

Observation

Le bulletin a été fait il y a 12 heures et 50 minutes, à 17:50 UTC
Vent 6 kt de sud
Température 13°C
Humidité 77%
Pression 1006 hPa
Visibilité 10 km ou plus
Nuages épars à une hauteur de 3500 ft

METAR: EGBJ 201750Z 17006KT 9999 SCT035 13/09 Q1006

Heure: 07:40 (06:40 UTC)

Prévision

Le bulletin a été fait il y a 16 heures et 37 minutes, à 14:03 UTC
Prévision valable du 20 à 15 UTC au 20 à 19 UTC
Vent 11 kt de ouest/sud-ouest
Visibilité 10 km ou plus
Nuages épars à une hauteur de 3000 ft
Evoluant progressivement
du 20 à 15 UTC au 20 à 17 UTC
Vent 12 kt de sud

TAF: EGBJ 201403Z 2015/2019 24011KT 9999 SCT030 BECMG 2015/2017 17012KT

Observations et prévisions météorologiques de plus de 4000 aéroports (messages METAR et TAF).

Les stations disponibles sont représentées par des disques jaunes et rouges sur la carte.

Passer la souris dessus pour voir le nom de la station.

Cliquer dessus pour voir les observations et prévisions météorologiques.

Pour changer de carte: cliquez sur les boutons verts avec une croix noire pour zoomer, sur le bouton vert avec un tiret pour effectuer un zoom arrière, ou sur les flèches vertes pour les cartes adjacentes.


METAR-TAF: